createdAt,value
2023-02-24T00:00:16.740Z,100.0
2023-02-24T00:01:17.602Z,100.0
2023-02-24T00:02:16.752Z,100.0
2023-02-24T00:03:17.311Z,100.0
2023-02-24T00:04:16.835Z,100.0
2023-02-24T00:05:17.324Z,100.0
2023-02-24T00:06:16.833Z,100.0
2023-02-24T00:07:17.330Z,100.0
2023-02-24T00:08:16.825Z,100.0
2023-02-24T00:09:17.312Z,100.0
2023-02-24T00:10:16.865Z,100.0
2023-02-24T00:11:18.338Z,100.0
2023-02-24T00:12:16.691Z,100.0
2023-02-24T00:13:17.167Z,100.0
2023-02-24T00:14:16.690Z,100.0
2023-02-24T00:15:17.217Z,100.0
2023-02-24T00:16:17.015Z,100.0
2023-02-24T00:17:16.798Z,100.0
2023-02-24T00:18:17.325Z,100.0
2023-02-24T00:19:16.817Z,100.0
2023-02-24T00:20:17.322Z,100.0
2023-02-24T00:21:16.800Z,100.0
2023-02-24T00:22:17.027Z,100.0
2023-02-24T00:23:16.582Z,100.0
2023-02-24T00:24:17.076Z,100.0
2023-02-24T00:25:16.587Z,100.0
2023-02-24T00:26:17.098Z,100.0
2023-02-24T00:27:16.579Z,100.0
2023-02-24T00:28:17.076Z,100.0
2023-02-24T00:29:16.565Z,100.0
2023-02-24T00:30:17.060Z,100.0
2023-02-24T00:31:16.752Z,100.0
2023-02-24T00:32:17.377Z,100.0
2023-02-24T00:33:16.996Z,100.0
2023-02-24T00:34:16.506Z,100.0
2023-02-24T00:35:17.050Z,100.0
2023-02-24T00:36:16.524Z,100.0
2023-02-24T00:37:17.033Z,100.0
2023-02-24T00:38:16.557Z,100.0
2023-02-24T00:39:17.052Z,100.0
2023-02-24T00:40:16.526Z,100.0
2023-02-24T00:41:17.039Z,100.0
2023-02-24T00:42:16.839Z,100.0
2023-02-24T00:43:17.333Z,100.0
2023-02-24T00:44:16.844Z,100.0
2023-02-24T00:45:17.331Z,100.0
2023-02-24T00:46:16.927Z,100.0
2023-02-24T00:47:16.590Z,100.0
2023-02-24T00:48:17.128Z,100.0
2023-02-24T00:49:16.613Z,100.0
2023-02-24T00:50:17.135Z,100.0
2023-02-24T00:51:16.657Z,100.0
2023-02-24T00:52:17.228Z,100.0
2023-02-24T00:53:16.754Z,100.0
2023-02-24T00:54:17.407Z,100.0
2023-02-24T00:55:16.967Z,100.0
2023-02-24T00:56:16.451Z,100.0
2023-02-24T00:57:16.929Z,100.0
2023-02-24T00:58:17.450Z,100.0
2023-02-24T00:59:17.000Z,100.0
2023-02-24T01:00:16.633Z,100.0
2023-02-24T01:01:17.348Z,100.0
2023-02-24T01:02:16.521Z,100.0
2023-02-24T01:03:17.032Z,100.0
2023-02-24T01:04:16.917Z,100.0
2023-02-24T01:05:16.630Z,100.0
2023-02-24T01:06:17.177Z,100.0
2023-02-24T01:07:16.697Z,100.0
2023-02-24T01:08:17.228Z,100.0
2023-02-24T01:09:16.728Z,100.0
2023-02-24T01:10:17.206Z,100.0
2023-02-24T01:11:16.727Z,100.0
2023-02-24T01:12:16.946Z,100.0
2023-02-24T01:13:16.506Z,100.0
2023-02-24T01:14:17.047Z,100.0
2023-02-24T01:15:16.542Z,100.0
2023-02-24T01:16:17.094Z,100.0
2023-02-24T01:17:16.618Z,100.0
2023-02-24T01:18:17.141Z,100.0
2023-02-24T01:19:16.678Z,100.0
2023-02-24T01:20:17.189Z,100.0
2023-02-24T01:21:16.707Z,100.0
2023-02-24T01:22:17.282Z,100.0
2023-02-24T01:23:16.771Z,100.0
2023-02-24T01:24:17.282Z,100.0
2023-02-24T01:25:16.784Z,100.0
2023-02-24T01:26:17.280Z,100.0
2023-02-24T01:27:16.744Z,100.0
2023-02-24T01:28:17.238Z,100.0
2023-02-24T01:29:16.738Z,100.0
2023-02-24T01:30:17.258Z,100.0
2023-02-24T01:31:16.956Z,100.0
2023-02-24T01:32:17.531Z,100.0
2023-02-24T01:33:17.354Z,100.0
2023-02-24T01:34:16.933Z,100.0
2023-02-24T01:35:17.443Z,100.0
2023-02-24T01:36:16.936Z,100.0
2023-02-24T01:37:17.429Z,100.0
2023-02-24T01:38:16.909Z,100.0
2023-02-24T01:39:17.415Z,100.0
2023-02-24T01:40:16.942Z,100.0
2023-02-24T01:41:17.535Z,100.0
2023-02-24T01:42:16.938Z,100.0
2023-02-24T01:43:17.452Z,100.0
2023-02-24T01:44:16.951Z,100.0
2023-02-24T01:45:17.455Z,100.0
2023-02-24T01:46:17.024Z,100.0
2023-02-24T01:47:16.583Z,100.0
2023-02-24T01:48:17.076Z,100.0
2023-02-24T01:49:16.558Z,100.0
2023-02-24T01:50:17.048Z,100.0
2023-02-24T01:51:16.562Z,100.0
2023-02-24T01:52:17.110Z,100.0
2023-02-24T01:53:16.620Z,100.0
2023-02-24T01:54:17.147Z,100.0
2023-02-24T01:55:16.666Z,100.0
2023-02-24T01:56:17.215Z,100.0
2023-02-24T01:57:16.718Z,100.0
2023-02-24T01:58:17.236Z,100.0
2023-02-24T01:59:16.754Z,100.0
2023-02-24T02:00:17.301Z,100.0
2023-02-24T02:01:16.923Z,100.0
2023-02-24T02:02:17.249Z,100.0
2023-02-24T02:03:16.837Z,100.0
2023-02-24T02:04:17.332Z,100.0
2023-02-24T02:05:16.833Z,100.0
2023-02-24T02:06:17.366Z,100.0
2023-02-24T02:07:16.882Z,100.0
2023-02-24T02:08:17.400Z,100.0
2023-02-24T02:09:16.905Z,100.0
2023-02-24T02:10:17.422Z,100.0
2023-02-24T02:11:16.918Z,100.0
2023-02-24T02:12:16.802Z,100.0
2023-02-24T02:13:17.294Z,100.0
2023-02-24T02:14:16.791Z,100.0
2023-02-24T02:15:17.299Z,100.0
2023-02-24T02:16:16.894Z,100.0
2023-02-24T02:17:17.414Z,100.0
2023-02-24T02:18:16.896Z,100.0
2023-02-24T02:19:17.416Z,100.0
2023-02-24T02:20:16.911Z,100.0
2023-02-24T02:21:17.407Z,100.0
2023-02-24T02:22:16.912Z,100.0
2023-02-24T02:23:17.453Z,100.0
2023-02-24T02:24:16.960Z,100.0
2023-02-24T02:25:17.548Z,100.0
2023-02-24T02:26:17.047Z,100.0
2023-02-24T02:27:16.558Z,100.0
2023-02-24T02:28:17.080Z,100.0
2023-02-24T02:29:16.576Z,100.0
2023-02-24T02:30:17.072Z,100.0
2023-02-24T02:31:16.873Z,100.0
2023-02-24T02:32:17.600Z,100.0
2023-02-24T02:33:17.191Z,100.0
2023-02-24T02:34:16.672Z,100.0
2023-02-24T02:35:17.194Z,100.0
2023-02-24T02:36:16.663Z,100.0
2023-02-24T02:37:17.206Z,100.0
2023-02-24T02:38:16.728Z,100.0
2023-02-24T02:39:17.261Z,100.0
2023-02-24T02:40:16.772Z,100.0
2023-02-24T02:41:17.298Z,100.0
2023-02-24T02:42:16.793Z,100.0
2023-02-24T02:43:17.358Z,100.0
2023-02-24T02:44:16.875Z,100.0
2023-02-24T02:45:17.352Z,100.0
2023-02-24T02:46:16.826Z,100.0
2023-02-24T02:47:17.362Z,100.0
2023-02-24T02:48:16.849Z,100.0
2023-02-24T02:49:17.325Z,100.0
2023-02-24T02:50:16.811Z,100.0
2023-02-24T02:51:17.349Z,100.0
2023-02-24T02:52:16.805Z,100.0
2023-02-24T02:53:17.302Z,100.0
2023-02-24T02:54:16.817Z,100.0
2023-02-24T02:55:17.305Z,100.0
2023-02-24T02:56:16.811Z,100.0
2023-02-24T02:57:17.291Z,100.0
2023-02-24T02:58:16.810Z,100.0
2023-02-24T02:59:17.333Z,100.0
2023-02-24T03:00:16.813Z,100.0
2023-02-24T03:01:17.408Z,100.0
2023-02-24T03:02:16.965Z,100.0
2023-02-24T03:03:16.476Z,100.0
2023-02-24T03:04:17.104Z,100.0
2023-02-24T03:05:16.672Z,100.0
2023-02-24T03:06:17.186Z,100.0
2023-02-24T03:07:16.698Z,100.0
2023-02-24T03:08:17.203Z,100.0
2023-02-24T03:09:16.748Z,100.0
2023-02-24T03:10:17.299Z,100.0
2023-02-24T03:11:16.782Z,100.0
2023-02-24T03:12:17.451Z,100.0
2023-02-24T03:13:16.957Z,100.0
2023-02-24T03:14:17.483Z,100.0
2023-02-24T03:15:16.978Z,100.0
2023-02-24T03:16:16.513Z,100.0
2023-02-24T03:17:17.013Z,100.0
2023-02-24T03:18:16.566Z,100.0
2023-02-24T03:19:17.072Z,100.0
2023-02-24T03:20:16.598Z,100.0
2023-02-24T03:21:17.104Z,100.0
2023-02-24T03:22:17.360Z,100.0
2023-02-24T03:23:16.932Z,100.0
2023-02-24T03:24:17.432Z,100.0
2023-02-24T03:25:16.913Z,100.0
2023-02-24T03:26:17.482Z,100.0
2023-02-24T03:27:16.964Z,100.0
2023-02-24T03:28:17.544Z,100.0
2023-02-24T03:29:17.037Z,100.0
2023-02-24T03:30:16.551Z,100.0
2023-02-24T03:31:17.159Z,100.0
2023-02-24T03:32:17.092Z,100.0
2023-02-24T03:33:16.688Z,100.0
2023-02-24T03:34:17.196Z,100.0
2023-02-24T03:35:16.714Z,100.0
2023-02-24T03:36:17.252Z,100.0
2023-02-24T03:37:16.746Z,100.0
2023-02-24T03:38:17.228Z,100.0
2023-02-24T03:39:16.743Z,100.0
2023-02-24T03:40:17.298Z,100.0
2023-02-24T03:41:16.788Z,100.0
2023-02-24T03:42:17.473Z,100.0
2023-02-24T03:43:17.062Z,100.0
2023-02-24T03:44:16.542Z,100.0
2023-02-24T03:45:17.067Z,100.0
2023-02-24T03:46:16.619Z,100.0
2023-02-24T03:47:17.205Z,100.0
2023-02-24T03:48:16.706Z,100.0
2023-02-24T03:49:17.233Z,100.0
2023-02-24T03:50:16.735Z,100.0
2023-02-24T03:51:17.262Z,100.0
2023-02-24T03:52:16.689Z,100.0
2023-02-24T03:53:17.197Z,100.0
2023-02-24T03:54:16.670Z,100.0
2023-02-24T03:55:17.243Z,100.0
2023-02-24T03:56:16.772Z,100.0
2023-02-24T03:57:17.251Z,100.0
2023-02-24T03:58:16.764Z,100.0
2023-02-24T03:59:17.246Z,100.0
2023-02-24T04:00:16.790Z,100.0
2023-02-24T04:01:17.273Z,100.0
2023-02-24T04:02:16.808Z,100.0
2023-02-24T04:03:17.344Z,100.0
2023-02-24T04:04:16.877Z,100.0
2023-02-24T04:05:17.438Z,100.0
2023-02-24T04:06:16.954Z,100.0
2023-02-24T04:07:17.437Z,100.0
2023-02-24T04:08:16.924Z,100.0
2023-02-24T04:09:17.412Z,100.0
2023-02-24T04:10:16.908Z,100.0
2023-02-24T04:11:17.415Z,100.0
2023-02-24T04:12:17.008Z,100.0
2023-02-24T04:13:16.529Z,100.0
2023-02-24T04:14:17.070Z,100.0
2023-02-24T04:15:16.630Z,100.0
2023-02-24T04:16:17.232Z,100.0
2023-02-24T04:17:16.721Z,100.0
2023-02-24T04:18:17.233Z,100.0
2023-02-24T04:19:16.741Z,100.0
2023-02-24T04:20:17.243Z,100.0
2023-02-24T04:21:16.740Z,100.0
2023-02-24T04:22:17.274Z,100.0
2023-02-24T04:23:16.814Z,100.0
2023-02-24T04:24:17.332Z,100.0
2023-02-24T04:25:16.821Z,100.0
2023-02-24T04:26:17.442Z,100.0
2023-02-24T04:27:16.944Z,100.0
2023-02-24T04:28:17.438Z,100.0
2023-02-24T04:29:16.951Z,100.0
2023-02-24T04:30:17.461Z,100.0
2023-02-24T04:31:17.215Z,100.0
2023-02-24T04:32:17.363Z,100.0
2023-02-24T04:33:16.918Z,100.0
2023-02-24T04:34:17.433Z,100.0
2023-02-24T04:35:17.022Z,100.0
2023-02-24T04:36:16.537Z,100.0
2023-02-24T04:37:17.054Z,100.0
2023-02-24T04:38:16.560Z,100.0
2023-02-24T04:39:17.041Z,100.0
2023-02-24T04:40:16.560Z,100.0
2023-02-24T04:41:17.077Z,100.0
2023-02-24T04:42:17.333Z,100.0
2023-02-24T04:43:16.834Z,100.0
2023-02-24T04:44:17.335Z,100.0
2023-02-24T04:45:16.852Z,100.0
2023-02-24T04:46:17.546Z,100.0
2023-02-24T04:47:17.088Z,100.0
2023-02-24T04:48:16.603Z,100.0
2023-02-24T04:49:17.096Z,100.0
2023-02-24T04:50:16.573Z,100.0
2023-02-24T04:51:17.105Z,100.0
2023-02-24T04:52:16.629Z,100.0
2023-02-24T04:53:17.141Z,100.0
2023-02-24T04:54:16.680Z,100.0
2023-02-24T04:55:17.227Z,100.0
2023-02-24T04:56:16.737Z,100.0
2023-02-24T04:57:17.257Z,100.0
2023-02-24T04:58:16.792Z,100.0
2023-02-24T04:59:17.278Z,100.0
2023-02-24T05:00:16.778Z,100.0
2023-02-24T05:01:17.260Z,100.0
2023-02-24T05:02:20.277Z,100.0
2023-02-24T05:03:16.782Z,100.0
2023-02-24T05:04:17.437Z,100.0
2023-02-24T05:05:16.976Z,100.0
2023-02-24T05:06:16.497Z,100.0
2023-02-24T05:07:16.992Z,100.0
2023-02-24T05:08:16.493Z,100.0
2023-02-24T05:09:16.964Z,100.0
2023-02-24T05:10:17.515Z,100.0
2023-02-24T05:11:17.196Z,100.0
2023-02-24T05:12:16.507Z,100.0
2023-02-24T05:13:17.011Z,100.0
2023-02-24T05:14:16.522Z,100.0
2023-02-24T05:15:17.009Z,100.0
2023-02-24T05:16:16.612Z,100.0
2023-02-24T05:17:17.141Z,100.0
2023-02-24T05:18:16.839Z,100.0
2023-02-24T05:19:17.446Z,100.0
2023-02-24T05:20:16.953Z,100.0
2023-02-24T05:21:17.440Z,100.0
2023-02-24T05:22:17.306Z,100.0
2023-02-24T05:23:16.824Z,100.0
2023-02-24T05:24:17.349Z,100.0
2023-02-24T05:25:16.879Z,100.0
2023-02-24T05:26:17.595Z,100.0
2023-02-24T05:27:17.099Z,100.0
2023-02-24T05:28:16.618Z,100.0
2023-02-24T05:29:17.152Z,100.0
2023-02-24T05:30:16.681Z,100.0
2023-02-24T05:31:17.550Z,100.0
2023-02-24T05:32:17.410Z,100.0
2023-02-24T05:33:16.934Z,100.0
2023-02-24T05:34:17.452Z,100.0
2023-02-24T05:35:16.927Z,100.0
2023-02-24T05:36:17.448Z,100.0
2023-02-24T05:37:17.100Z,100.0
2023-02-24T05:38:16.594Z,100.0
2023-02-24T05:39:17.106Z,100.0
2023-02-24T05:40:16.616Z,100.0
2023-02-24T05:41:17.244Z,100.0
2023-02-24T05:42:16.702Z,100.0
2023-02-24T05:43:17.181Z,100.0
2023-02-24T05:44:16.717Z,100.0
2023-02-24T05:45:17.224Z,100.0
2023-02-24T05:46:16.802Z,100.0
2023-02-24T05:47:17.338Z,100.0
2023-02-24T05:48:16.824Z,100.0
2023-02-24T05:49:17.320Z,100.0
2023-02-24T05:50:16.814Z,100.0
2023-02-24T05:51:17.341Z,100.0
2023-02-24T05:52:16.713Z,100.0
2023-02-24T05:53:17.205Z,100.0
2023-02-24T05:54:16.702Z,100.0
2023-02-24T05:55:17.222Z,100.0
2023-02-24T05:56:16.702Z,100.0
2023-02-24T05:57:17.246Z,100.0
2023-02-24T05:58:16.746Z,100.0
2023-02-24T05:59:17.233Z,100.0
2023-02-24T06:00:16.736Z,100.0
2023-02-24T06:01:17.204Z,100.0
2023-02-24T06:02:16.989Z,100.0
2023-02-24T06:03:16.636Z,100.0
2023-02-24T06:04:17.171Z,100.0
2023-02-24T06:05:17.082Z,100.0
2023-02-24T06:06:17.175Z,100.0
2023-02-24T06:07:16.657Z,100.0
2023-02-24T06:08:17.150Z,100.0
2023-02-24T06:09:16.705Z,100.0
2023-02-24T06:10:17.231Z,100.0
2023-02-24T06:11:16.738Z,100.0
2023-02-24T06:12:17.408Z,100.0
2023-02-24T06:13:16.908Z,100.0
2023-02-24T06:14:17.378Z,100.0
2023-02-24T06:15:16.857Z,100.0
2023-02-24T06:16:17.551Z,100.0
2023-02-24T06:17:17.277Z,100.0
2023-02-24T06:18:16.764Z,100.0
2023-02-24T06:19:17.847Z,100.0
2023-02-24T06:20:17.413Z,100.0
2023-02-24T06:21:16.930Z,99.9
2023-02-24T06:22:17.114Z,99.9
2023-02-24T06:23:16.606Z,99.9
2023-02-24T06:24:17.092Z,99.9
2023-02-24T06:25:16.602Z,99.9
2023-02-24T06:26:17.116Z,99.9
2023-02-24T06:27:16.591Z,99.9
2023-02-24T06:28:17.126Z,99.8
2023-02-24T06:29:16.672Z,99.9
2023-02-24T06:30:17.155Z,99.9
2023-02-24T06:31:16.731Z,99.8
2023-02-24T06:32:17.587Z,99.8
2023-02-24T06:33:17.174Z,99.8
2023-02-24T06:34:16.692Z,99.8
2023-02-24T06:35:17.210Z,99.8
2023-02-24T06:36:16.728Z,99.8
2023-02-24T06:37:17.241Z,99.8
2023-02-24T06:38:16.768Z,99.8
2023-02-24T06:39:17.269Z,99.7
2023-02-24T06:40:16.752Z,99.7
2023-02-24T06:41:17.319Z,99.7
2023-02-24T06:42:16.792Z,99.7
2023-02-24T06:43:17.316Z,99.7
2023-02-24T06:44:16.837Z,99.6
2023-02-24T06:45:17.354Z,99.6
2023-02-24T06:46:17.027Z,99.7
2023-02-24T06:47:16.632Z,99.6
2023-02-24T06:48:17.121Z,99.6
2023-02-24T06:49:16.617Z,99.6
2023-02-24T06:50:17.130Z,99.5
2023-02-24T06:51:16.653Z,99.6
2023-02-24T06:52:17.286Z,99.6
2023-02-24T06:53:16.881Z,99.5
2023-02-24T06:54:17.396Z,99.4
2023-02-24T06:55:16.920Z,99.4
2023-02-24T06:56:17.427Z,99.3
2023-02-24T06:57:16.932Z,99.3
2023-02-24T06:58:17.458Z,99.3
2023-02-24T06:59:16.953Z,99.4
2023-02-24T07:00:17.482Z,99.3
2023-02-24T07:01:17.160Z,99.4
2023-02-24T07:02:16.789Z,99.3
2023-02-24T07:03:17.369Z,99.4
2023-02-24T07:04:17.035Z,99.3
2023-02-24T07:05:16.581Z,99.3
2023-02-24T07:06:17.121Z,99.2
2023-02-24T07:07:16.760Z,99.1
2023-02-24T07:08:17.252Z,99.1
2023-02-24T07:09:16.843Z,99.2
2023-02-24T07:10:17.339Z,99.0
2023-02-24T07:11:16.828Z,99.0
2023-02-24T07:12:17.289Z,99.1
2023-02-24T07:13:16.828Z,99.1
2023-02-24T07:14:17.342Z,99.1
2023-02-24T07:15:16.865Z,99.2
2023-02-24T07:16:17.540Z,99.2
2023-02-24T07:17:17.083Z,99.1
2023-02-24T07:18:16.716Z,98.9
2023-02-24T07:19:17.209Z,99.0
2023-02-24T07:20:16.724Z,99.0
2023-02-24T07:21:17.207Z,99.1
2023-02-24T07:22:16.708Z,99.1
2023-02-24T07:23:17.251Z,99.0
2023-02-24T07:24:16.755Z,99.0
2023-02-24T07:25:17.238Z,98.8
2023-02-24T07:26:16.791Z,98.6
2023-02-24T07:27:17.279Z,98.5
2023-02-24T07:28:16.790Z,98.6
2023-02-24T07:29:17.289Z,98.6
2023-02-24T07:30:16.822Z,98.6
2023-02-24T07:31:17.947Z,98.6
2023-02-24T07:32:16.843Z,98.5
2023-02-24T07:33:17.418Z,98.6
2023-02-24T07:34:17.023Z,98.5
2023-02-24T07:35:16.520Z,98.4
2023-02-24T07:36:17.000Z,98.6
2023-02-24T07:37:16.517Z,98.6
2023-02-24T07:38:17.074Z,98.4
2023-02-24T07:39:16.593Z,98.1
2023-02-24T07:40:17.097Z,98.3
2023-02-24T07:41:16.605Z,98.3
2023-02-24T07:42:17.378Z,98.2
2023-02-24T07:43:16.923Z,98.3
2023-02-24T07:44:17.450Z,97.9
2023-02-24T07:45:17.079Z,97.8
2023-02-24T07:46:16.673Z,97.9
2023-02-24T07:47:17.204Z,98.2
2023-02-24T07:48:16.703Z,98.2
2023-02-24T07:49:17.199Z,98.1
2023-02-24T07:50:16.718Z,97.9
2023-02-24T07:51:17.216Z,97.8
2023-02-24T07:52:16.997Z,98.1
2023-02-24T07:53:16.550Z,98.1
2023-02-24T07:54:17.083Z,98.1
2023-02-24T07:55:16.592Z,98.1
2023-02-24T07:56:17.187Z,98.0
2023-02-24T07:57:16.696Z,98.1
2023-02-24T07:58:17.231Z,98.1
2023-02-24T07:59:16.781Z,98.0
2023-02-24T08:00:17.300Z,97.8
2023-02-24T08:01:16.764Z,97.8
2023-02-24T08:02:17.532Z,97.7
2023-02-24T08:03:17.074Z,97.8
2023-02-24T08:04:16.573Z,97.8
2023-02-24T08:05:17.156Z,97.8
2023-02-24T08:06:16.664Z,97.8
2023-02-24T08:07:17.201Z,97.8
2023-02-24T08:08:16.709Z,97.7
2023-02-24T08:09:17.255Z,97.7
2023-02-24T08:10:16.782Z,97.5
2023-02-24T08:11:17.498Z,97.6
2023-02-24T08:12:16.941Z,97.6
2023-02-24T08:13:17.442Z,97.9
2023-02-24T08:14:16.908Z,97.9
2023-02-24T08:15:17.857Z,97.6
2023-02-24T08:16:17.648Z,97.4
2023-02-24T08:17:17.212Z,97.6
2023-02-24T08:18:16.746Z,97.6
2023-02-24T08:19:17.294Z,97.8
2023-02-24T08:20:16.851Z,97.7
2023-02-24T08:21:17.506Z,97.5
2023-02-24T08:22:16.892Z,97.7
2023-02-24T08:23:17.399Z,97.5
2023-02-24T08:24:16.902Z,97.5
2023-02-24T08:25:17.429Z,97.7
2023-02-24T08:26:16.963Z,97.4
2023-02-24T08:27:16.515Z,97.5
2023-02-24T08:28:17.010Z,97.5
2023-02-24T08:29:16.524Z,97.4
2023-02-24T08:30:17.028Z,97.4
2023-02-24T08:31:16.705Z,97.2
2023-02-24T08:32:20.968Z,97.3
2023-02-24T08:33:16.541Z,97.4
2023-02-24T08:34:17.042Z,97.4
2023-02-24T08:35:16.542Z,97.6
2023-02-24T08:36:17.073Z,97.3
2023-02-24T08:37:16.709Z,97.5
2023-02-24T08:38:17.326Z,97.4
2023-02-24T08:39:16.851Z,97.5
2023-02-24T08:40:17.428Z,97.5
2023-02-24T08:41:16.950Z,97.4
2023-02-24T08:42:17.333Z,97.3
2023-02-24T08:43:16.826Z,97.1
2023-02-24T08:44:17.343Z,97.3
2023-02-24T08:45:16.846Z,97.1
2023-02-24T08:46:17.446Z,97.3
2023-02-24T08:47:17.010Z,97.0
2023-02-24T08:48:16.527Z,96.9
2023-02-24T08:49:17.033Z,96.9
2023-02-24T08:50:16.539Z,96.9
2023-02-24T08:51:17.058Z,97.0
2023-02-24T08:52:16.534Z,96.9
2023-02-24T08:53:16.997Z,96.8
2023-02-24T08:54:16.495Z,96.8
2023-02-24T08:55:17.013Z,96.9
2023-02-24T08:56:16.529Z,96.7
2023-02-24T08:57:17.044Z,96.3
2023-02-24T08:58:16.543Z,96.5
2023-02-24T08:59:17.036Z,96.4
2023-02-24T09:00:16.563Z,96.3
2023-02-24T09:01:17.187Z,96.3
2023-02-24T09:02:16.477Z,96.2
2023-02-24T09:03:16.975Z,96.3
2023-02-24T09:04:16.625Z,96.2
2023-02-24T09:05:17.132Z,96.4
2023-02-24T09:06:16.621Z,96.1
2023-02-24T09:07:17.132Z,96.1
2023-02-24T09:08:16.606Z,95.9
2023-02-24T09:09:17.103Z,95.7
2023-02-24T09:10:16.641Z,95.9
2023-02-24T09:11:17.161Z,96.0
2023-02-24T09:12:16.694Z,95.8
2023-02-24T09:13:17.219Z,95.8
2023-02-24T09:14:28.174Z,95.9
2023-02-24T09:15:17.084Z,95.8
2023-02-24T09:16:16.957Z,95.7
2023-02-24T09:17:16.463Z,95.8
2023-02-24T09:18:16.952Z,96.0
2023-02-24T09:19:17.533Z,96.1
2023-02-24T09:20:17.056Z,96.0
2023-02-24T09:21:16.554Z,95.7
2023-02-24T09:22:21.776Z,95.8
2023-02-24T09:23:17.296Z,95.9
2023-02-24T09:24:17.190Z,95.9
2023-02-24T09:25:16.675Z,95.7
2023-02-24T09:26:17.159Z,95.6
2023-02-24T09:27:16.649Z,95.5
2023-02-24T09:28:18.029Z,95.2
2023-02-24T09:29:16.741Z,94.2
2023-02-24T09:30:17.246Z,95.0
2023-02-24T09:31:17.159Z,94.8
2023-02-24T09:32:17.492Z,94.6
2023-02-24T09:33:17.028Z,94.4
2023-02-24T09:34:16.517Z,94.4
2023-02-24T09:35:17.023Z,94.4
2023-02-24T09:36:16.507Z,94.8
2023-02-24T09:37:17.032Z,94.3
2023-02-24T09:38:16.536Z,94.2
2023-02-24T09:39:17.023Z,94.5
2023-02-24T09:40:16.514Z,94.0
2023-02-24T09:41:19.393Z,93.7
2023-02-24T09:42:16.782Z,94.0
2023-02-24T09:43:17.282Z,93.9
2023-02-24T09:44:16.770Z,93.9
2023-02-24T09:45:17.313Z,94.2
2023-02-24T09:46:17.147Z,94.3
2023-02-24T09:47:16.699Z,94.2
2023-02-24T09:48:17.934Z,94.2
2023-02-24T09:49:17.472Z,94.5
2023-02-24T09:50:55.360Z,94.4
2023-02-24T09:51:17.436Z,94.4
2023-02-24T09:52:17.537Z,94.6
2023-02-24T09:53:17.085Z,94.4
2023-02-24T09:54:16.605Z,94.3
2023-02-24T09:55:17.191Z,93.0
2023-02-24T09:56:16.691Z,93.7
2023-02-24T09:57:17.366Z,94.2
2023-02-24T09:58:16.901Z,93.3
2023-02-24T09:59:17.448Z,93.6
2023-02-24T10:00:16.951Z,93.7
2023-02-24T10:01:17.645Z,93.2
2023-02-24T10:02:17.067Z,93.6
2023-02-24T10:03:16.587Z,93.0
2023-02-24T10:04:21.728Z,93.2
2023-02-24T10:05:17.257Z,93.6
2023-02-24T10:06:16.738Z,93.1
2023-02-24T10:07:17.237Z,92.8
2023-02-24T10:08:16.754Z,93.0
2023-02-24T10:09:17.254Z,93.0
2023-02-24T10:10:16.759Z,92.9
2023-02-24T10:11:17.309Z,93.1
2023-02-24T10:12:16.504Z,92.5
2023-02-24T10:13:17.053Z,92.5
2023-02-24T10:14:16.593Z,93.1
2023-02-24T10:15:17.130Z,93.0
2023-02-24T10:16:16.732Z,92.9
2023-02-24T10:17:17.248Z,93.2
2023-02-24T10:18:16.757Z,92.5
2023-02-24T10:19:17.264Z,92.9
2023-02-24T10:20:16.731Z,92.9
2023-02-24T10:21:17.232Z,92.8
2023-02-24T10:22:16.940Z,93.2
2023-02-24T10:23:17.478Z,93.2
2023-02-24T10:24:16.985Z,92.9
2023-02-24T10:25:21.640Z,93.0
2023-02-24T10:26:17.136Z,92.7
2023-02-24T10:27:17.724Z,92.7
2023-02-24T10:28:17.269Z,92.8
2023-02-24T10:29:19.092Z,93.0
2023-02-24T10:30:16.620Z,93.1
2023-02-24T10:31:17.420Z,92.9
2023-02-24T10:32:17.127Z,92.8
2023-02-24T10:33:16.723Z,92.9
2023-02-24T10:34:17.204Z,92.8
2023-02-24T10:35:16.949Z,92.5
2023-02-24T10:36:16.464Z,92.1
2023-02-24T10:37:29.361Z,92.3
2023-02-24T10:38:17.009Z,91.9
2023-02-24T10:39:16.511Z,91.4
2023-02-24T10:40:17.026Z,91.5
2023-02-24T10:41:16.561Z,91.5
2023-02-24T10:42:16.938Z,91.6
2023-02-24T10:43:17.466Z,91.4
2023-02-24T10:44:16.970Z,90.1
2023-02-24T10:45:19.213Z,90.8
2023-02-24T10:46:18.677Z,90.4
2023-02-24T10:47:17.246Z,90.6
2023-02-24T10:48:16.724Z,90.2
2023-02-24T10:49:17.440Z,89.9
2023-02-24T10:50:16.955Z,89.5
2023-02-24T10:51:17.491Z,89.6
2023-02-24T10:52:16.930Z,89.7
2023-02-24T10:53:17.414Z,90.3
2023-02-24T10:54:16.948Z,89.4
2023-02-24T10:55:17.509Z,90.2
2023-02-24T10:56:16.990Z,89.7
2023-02-24T10:57:16.483Z,89.1
2023-02-24T10:58:17.004Z,88.8
2023-02-24T10:59:16.573Z,89.3
2023-02-24T11:00:17.154Z,88.8
2023-02-24T11:01:16.736Z,89.7
2023-02-24T11:02:17.474Z,88.7
2023-02-24T11:03:32.909Z,89.0
2023-02-24T11:04:16.566Z,88.9
2023-02-24T11:05:17.096Z,87.6
2023-02-24T11:06:16.638Z,88.0
2023-02-24T11:07:17.129Z,88.1
2023-02-24T11:08:16.656Z,87.5
2023-02-24T11:09:17.175Z,87.7
2023-02-24T11:10:16.662Z,88.0
2023-02-24T11:11:17.166Z,88.2
2023-02-24T11:12:16.503Z,86.8
2023-02-24T11:13:16.992Z,87.1
2023-02-24T11:14:16.542Z,88.0
2023-02-24T11:15:17.053Z,86.2
2023-02-24T11:16:16.648Z,86.5
2023-02-24T11:17:17.191Z,86.7
2023-02-24T11:18:16.693Z,86.1
2023-02-24T11:19:17.185Z,86.3
2023-02-24T11:20:16.710Z,87.1
2023-02-24T11:21:17.220Z,85.2
2023-02-24T11:22:16.755Z,84.8
2023-02-24T11:23:17.238Z,85.7
2023-02-24T11:24:16.755Z,85.3
2023-02-24T11:25:17.240Z,84.5
2023-02-24T11:26:16.989Z,85.0
2023-02-24T11:27:16.569Z,85.8
2023-02-24T11:28:17.064Z,85.8
2023-02-24T11:29:16.553Z,85.6
2023-02-24T11:30:17.107Z,85.9
2023-02-24T11:31:16.791Z,85.2
2023-02-24T11:32:17.420Z,85.0
2023-02-24T11:33:17.047Z,84.9
2023-02-24T11:34:16.531Z,84.8
2023-02-24T11:35:17.004Z,84.7
2023-02-24T11:36:16.607Z,84.7
2023-02-24T11:37:17.119Z,85.3
2023-02-24T11:38:16.602Z,85.2
2023-02-24T11:39:21.823Z,84.9
2023-02-24T11:40:17.374Z,84.2
2023-02-24T11:41:16.878Z,84.8
2023-02-24T11:42:16.593Z,85.0
2023-02-24T11:43:17.099Z,84.0
2023-02-24T11:44:16.999Z,84.8
2023-02-24T11:45:16.502Z,84.4
2023-02-24T11:46:17.317Z,83.7
2023-02-24T11:47:16.868Z,84.4
2023-02-24T11:48:17.396Z,84.0
2023-02-24T11:49:16.924Z,82.7
2023-02-24T11:50:17.462Z,82.5
2023-02-24T11:51:16.968Z,82.8
2023-02-24T11:52:17.432Z,83.2
2023-02-24T11:53:16.918Z,81.8
2023-02-24T11:54:17.453Z,81.5
2023-02-24T11:55:16.951Z,81.9
2023-02-24T11:56:17.519Z,82.2
2023-02-24T11:57:17.005Z,82.0
2023-02-24T11:58:16.491Z,82.5
2023-02-24T11:59:16.974Z,80.8
2023-02-24T12:00:16.727Z,80.5
2023-02-24T12:01:17.300Z,80.0
2023-02-24T12:02:16.721Z,80.8
2023-02-24T12:03:17.366Z,80.8
2023-02-24T12:04:16.910Z,80.4
2023-02-24T12:05:17.428Z,80.2
2023-02-24T12:06:17.044Z,80.7
2023-02-24T12:07:16.626Z,81.1
2023-02-24T12:08:17.144Z,80.1
2023-02-24T12:09:16.616Z,79.8
2023-02-24T12:10:18.164Z,80.2
2023-02-24T12:11:16.711Z,80.0
2023-02-24T12:12:16.510Z,80.2
2023-02-24T12:13:17.045Z,79.9
2023-02-24T12:14:16.571Z,80.6
2023-02-24T12:15:17.119Z,80.3
2023-02-24T12:16:16.947Z,80.1
2023-02-24T12:17:16.489Z,80.6
2023-02-24T12:18:16.987Z,81.1
2023-02-24T12:19:16.500Z,79.3
2023-02-24T12:20:17.030Z,80.2
2023-02-24T12:21:16.550Z,80.2
2023-02-24T12:22:16.761Z,80.0
2023-02-24T12:23:17.303Z,79.9
2023-02-24T12:24:16.825Z,80.3
2023-02-24T12:25:17.317Z,80.0
2023-02-24T12:26:16.909Z,79.1
2023-02-24T12:27:17.422Z,79.2
2023-02-24T12:28:16.948Z,79.4
2023-02-24T12:29:17.447Z,80.1
2023-02-24T12:30:17.003Z,80.3
2023-02-24T12:31:16.737Z,80.0
2023-02-24T12:32:17.169Z,79.5
2023-02-24T12:33:16.721Z,79.4
2023-02-24T12:34:17.208Z,79.8
2023-02-24T12:35:16.735Z,79.2
2023-02-24T12:36:17.240Z,79.4
2023-02-24T12:37:16.743Z,79.3
2023-02-24T12:38:17.324Z,79.1
2023-02-24T12:39:16.865Z,79.6
2023-02-24T12:40:17.363Z,79.3
2023-02-24T12:41:16.881Z,79.5
2023-02-24T12:42:16.521Z,79.0
2023-02-24T12:43:17.013Z,79.3
2023-02-24T12:44:16.568Z,79.3
2023-02-24T12:45:17.055Z,79.4
2023-02-24T12:46:16.655Z,79.9
2023-02-24T12:47:17.161Z,79.4
2023-02-24T12:48:16.666Z,79.5
2023-02-24T12:49:17.191Z,79.3
2023-02-24T12:50:16.729Z,79.5
2023-02-24T12:51:17.242Z,79.5
2023-02-24T12:52:16.638Z,79.5
2023-02-24T12:53:17.183Z,79.5
2023-02-24T12:54:16.697Z,79.4
2023-02-24T12:55:17.249Z,79.8
2023-02-24T12:56:16.738Z,80.3
2023-02-24T12:57:17.236Z,79.8
2023-02-24T12:58:16.752Z,79.3
2023-02-24T12:59:17.273Z,79.7
2023-02-24T13:00:16.832Z,80.0
2023-02-24T13:01:17.428Z,79.9
2023-02-24T13:02:16.782Z,80.0
2023-02-24T13:03:17.312Z,80.2
2023-02-24T13:04:16.809Z,80.7
2023-02-24T13:05:17.297Z,80.9